Time;durP1;ratioP1;P1;durP2;ratioP2;P2;SDS_P1;SDS_P2;PMS_P1;PMS_P2;Temp;Humidity;BMP_temperature;BMP_pressure;BME280_temperature;BME280_humidity;BME280_pressure;Samples;Min_cycle;Max_cycle;Signal;HPM_P1;HPM_P2
2021/04/09 00:01:24;;;;;;;12.52;10.88;;;4.70;99.90;;;;;;5056683;28;20112;-50
2021/04/09 00:03:49;;;;;;;15.77;11.65;;;4.70;99.90;;;;;;5059453;28;20100;-49
2021/04/09 00:06:15;;;;;;;14.20;11.95;;;4.80;99.90;;;;;;5059556;28;20028;-54
2021/04/09 00:08:41;;;;;;;13.57;11.45;;;4.80;99.90;;;;;;5053707;28;20091;-53
2021/04/09 00:11:07;;;;;;;14.57;12.32;;;4.80;99.90;;;;;;5031869;28;20021;-51
2021/04/09 00:13:32;;;;;;;16.95;11.73;;;4.80;99.90;;;;;;5049814;28;20029;-53
2021/04/09 00:15:58;;;;;;;15.02;11.57;;;4.80;99.90;;;;;;5051322;28;20660;-51
2021/04/09 00:18:24;;;;;;;13.85;12.35;;;4.80;99.90;;;;;;5054467;28;20024;-49
2021/04/09 00:20:49;;;;;;;13.20;11.38;;;4.80;99.90;;;;;;5057028;28;20033;-54
2021/04/09 00:23:15;;;;;;;13.50;10.93;;;4.80;99.90;;;;;;5049828;28;20052;-52
2021/04/09 00:25:40;;;;;;;13.57;11.30;;;4.80;99.90;;;;;;5050263;28;20039;-54
2021/04/09 00:28:06;;;;;;;17.23;12.10;;;4.80;99.90;;;;;;5050908;28;20052;-54
2021/04/09 00:30:31;;;;;;;14.95;11.85;;;4.80;99.90;;;;;;5049540;28;20403;-52
2021/04/09 00:32:57;;;;;;;15.10;12.25;;;4.80;99.90;;;;;;5066039;28;20081;-52
2021/04/09 00:35:23;;;;;;;13.95;11.50;;;4.80;99.90;;;;;;5065632;28;20025;-52
2021/04/09 00:37:51;;;;;;;14.35;11.55;;;4.80;99.90;;;;;;5051326;28;20032;-52
2021/04/09 00:40:17;;;;;;;15.68;10.93;;;4.80;99.90;;;;;;5090749;22;20048;-54
2021/04/09 00:42:42;;;;;;;14.95;11.05;;;4.80;99.90;;;;;;5082859;28;20442;-55
2021/04/09 00:45:09;;;;;;;13.90;11.60;;;4.80;99.90;;;;;;5077500;28;20044;-56
2021/04/09 00:47:35;;;;;;;13.50;11.13;;;4.80;99.90;;;;;;5069459;28;20033;-56
2021/04/09 00:50:01;;;;;;;20.20;11.95;;;4.80;99.90;;;;;;5056990;28;20285;-57
2021/04/09 00:52:32;;;;;;;13.00;10.40;;;4.80;99.90;;;;;;5033662;28;20500;-56
2021/04/09 00:54:59;;;;;;;12.40;10.88;;;4.90;99.90;;;;;;5051168;28;20522;-55
2021/04/09 00:57:25;;;;;;;14.82;12.05;;;4.80;99.90;;;;;;5033247;28;20540;-56
2021/04/09 00:59:52;;;;;;;17.45;11.65;;;4.80;99.90;;;;;;5046613;28;20111;-57
2021/04/09 01:02:19;;;;;;;12.52;11.23;;;4.80;99.90;;;;;;5045615;28;20036;-55
2021/04/09 01:04:45;;;;;;;15.93;12.07;;;4.80;99.90;;;;;;5047728;28;20025;-58
2021/04/09 01:07:11;;;;;;;15.15;11.82;;;4.80;99.90;;;;;;5048596;28;20033;-56
2021/04/09 01:09:37;;;;;;;15.30;11.18;;;4.90;99.90;;;;;;5047738;28;20462;-58
2021/04/09 01:12:04;;;;;;;13.50;10.75;;;4.90;99.90;;;;;;5048353;28;20033;-55
2021/04/09 01:14:31;;;;;;;16.45;11.23;;;4.80;99.90;;;;;;5048634;28;20031;-56
2021/04/09 01:17:05;;;;;;;16.85;11.60;;;4.80;99.90;;;;;;5053578;28;20040;-55
2021/04/09 01:19:55;;;;;;;15.18;11.25;;;4.80;99.90;;;;;;5048684;28;20031;-56
2021/04/09 01:22:25;;;;;;;16.58;11.27;;;4.80;99.90;;;;;;5030218;28;20032;-55
2021/04/09 01:25:09;;;;;;;13.55;10.68;;;4.80;99.90;;;;;;5048223;28;20134;-55
2021/04/09 01:27:41;;;;;;;12.70;10.90;;;4.80;99.90;;;;;;5046013;28;20107;-55
2021/04/09 01:30:25;;;;;;;15.77;11.02;;;4.80;99.90;;;;;;5045511;28;20033;-56
2021/04/09 01:32:53;;;;;;;15.55;10.65;;;4.70;99.90;;;;;;5047980;28;20036;-54
2021/04/09 01:35:20;;;;;;;13.70;10.40;;;4.80;99.90;;;;;;5045659;28;20037;-56
2021/04/09 01:37:59;;;;;;;15.15;11.85;;;4.80;99.90;;;;;;5047266;28;20017;-55
2021/04/09 01:40:30;;;;;;;15.60;11.32;;;4.80;99.90;;;;;;5046992;28;20471;-56
2021/04/09 01:43:00;;;;;;;13.93;11.07;;;4.80;99.90;;;;;;5047962;28;20021;-55
2021/04/09 01:45:28;;;;;;;13.05;11.38;;;4.80;99.90;;;;;;5047939;28;20538;-59
2021/04/09 01:47:54;;;;;;;16.58;11.07;;;4.80;99.90;;;;;;5063365;28;20025;-57
2021/04/09 01:50:21;;;;;;;20.52;12.57;;;4.80;99.90;;;;;;5059091;28;20076;-54
2021/04/09 01:52:49;;;;;;;14.38;11.82;;;4.80;99.90;;;;;;5048112;28;20024;-54
2021/04/09 01:55:16;;;;;;;14.50;11.32;;;4.80;99.90;;;;;;5048104;28;20025;-56
2021/04/09 01:57:44;;;;;;;14.95;11.57;;;4.80;99.90;;;;;;5047044;28;20129;-55
2021/04/09 02:00:14;;;;;;;15.68;12.02;;;4.80;99.90;;;;;;5047678;28;20017;-56
2021/04/09 02:02:43;;;;;;;15.48;11.48;;;4.80;99.90;;;;;;5047339;28;20056;-55
2021/04/09 02:05:11;;;;;;;16.25;10.50;;;4.80;99.90;;;;;;5046603;28;20033;-56
2021/04/09 02:07:38;;;;;;;15.45;11.07;;;4.80;99.90;;;;;;5029723;28;20032;-56
2021/04/09 02:10:05;;;;;;;12.55;10.10;;;4.80;99.90;;;;;;5045391;28;20029;-56
2021/04/09 02:12:31;;;;;;;14.70;10.93;;;4.80;99.90;;;;;;5041172;28;20033;-56
2021/04/09 02:14:57;;;;;;;15.90;11.15;;;4.80;99.90;;;;;;5042347;28;20068;-56
2021/04/09 02:17:23;;;;;;;18.42;11.57;;;4.80;99.90;;;;;;5049715;28;20525;-57
2021/04/09 02:19:50;;;;;;;17.33;11.27;;;4.80;99.90;;;;;;5055304;28;20020;-56
2021/04/09 02:22:17;;;;;;;14.63;11.45;;;4.70;99.90;;;;;;5047123;28;20083;-55
2021/04/09 02:24:42;;;;;;;16.67;11.88;;;4.70;99.90;;;;;;5046939;28;20081;-57
2021/04/09 02:27:08;;;;;;;13.80;11.15;;;4.70;99.90;;;;;;5047470;28;20442;-56
2021/04/09 02:29:34;;;;;;;14.30;11.10;;;4.70;99.90;;;;;;5047649;28;20429;-55
2021/04/09 02:32:01;;;;;;;14.25;11.38;;;4.60;99.90;;;;;;5047851;28;20104;-54
2021/04/09 02:34:26;;;;;;;13.30;11.18;;;4.60;99.90;;;;;;5051704;28;20087;-53
2021/04/09 02:36:53;;;;;;;16.52;11.68;;;4.60;99.90;;;;;;5047734;28;20040;-52
2021/04/09 02:39:26;;;;;;;14.63;11.02;;;4.50;99.90;;;;;;5047213;28;20036;-55
2021/04/09 02:42:04;;;;;;;13.60;11.23;;;4.50;99.90;;;;;;5048058;28;20297;-55
2021/04/09 02:44:30;;;;;;;14.75;11.50;;;4.50;99.90;;;;;;5047446;28;20553;-55
2021/04/09 02:47:06;;;;;;;13.43;10.68;;;4.40;99.90;;;;;;5045091;28;20676;-58
2021/04/09 02:49:46;;;;;;;14.68;12.18;;;4.40;99.90;;;;;;5046585;28;20025;-56
2021/04/09 02:52:20;;;;;;;17.08;11.30;;;4.40;99.90;;;;;;5047776;28;20028;-55
2021/04/09 02:54:50;;;;;;;13.45;11.20;;;4.40;99.90;;;;;;5034474;28;20017;-57
2021/04/09 02:57:18;;;;;;;14.18;12.45;;;4.30;99.90;;;;;;5047825;28;20391;-56
2021/04/09 02:59:44;;;;;;;15.68;11.18;;;4.30;99.90;;;;;;5029492;28;20112;-56
2021/04/09 03:02:12;;;;;;;17.17;11.27;;;4.30;99.90;;;;;;5047444;28;20092;-56
2021/04/09 03:04:39;;;;;;;12.20;10.75;;;4.20;99.90;;;;;;5047461;28;20049;-55
2021/04/09 03:07:05;;;;;;;16.80;11.15;;;4.10;99.90;;;;;;5029794;28;20021;-55
2021/04/09 03:09:30;;;;;;;13.93;11.32;;;4.10;99.90;;;;;;5049331;28;20539;-54
2021/04/09 03:11:56;;;;;;;15.52;10.98;;;4.10;99.90;;;;;;5051450;28;20546;-57
2021/04/09 03:14:22;;;;;;;15.02;11.15;;;4.10;99.90;;;;;;5051779;28;20041;-57
2021/04/09 03:17:01;;;;;;;19.20;12.00;;;4.00;99.90;;;;;;5051535;28;20036;-54
2021/04/09 03:19:27;;;;;;;13.02;10.93;;;4.00;99.90;;;;;;5051296;28;20028;-55
2021/04/09 03:21:53;;;;;;;16.52;11.13;;;4.00;99.90;;;;;;5032926;28;20025;-55
2021/04/09 03:24:18;;;;;;;16.33;12.07;;;4.00;99.90;;;;;;5051318;28;20020;-57
2021/04/09 03:26:44;;;;;;;21.45;11.80;;;3.90;99.90;;;;;;5051479;28;20418;-56
2021/04/09 03:29:10;;;;;;;14.05;11.02;;;3.90;99.90;;;;;;5050888;28;20566;-55
2021/04/09 03:31:35;;;;;;;18.33;10.88;;;3.90;99.90;;;;;;5051046;28;20040;-56
2021/04/09 03:34:01;;;;;;;17.13;11.38;;;3.90;99.90;;;;;;5051386;28;20021;-56
2021/04/09 03:36:27;;;;;;;17.58;12.32;;;3.90;99.90;;;;;;5042788;28;20564;-54
2021/04/09 03:38:52;;;;;;;15.43;11.27;;;3.90;99.90;;;;;;5050327;28;20651;-57
2021/04/09 03:41:18;;;;;;;18.67;12.75;;;3.90;99.90;;;;;;5050365;28;20052;-56
2021/04/09 03:43:43;;;;;;;15.38;12.40;;;3.90;99.90;;;;;;5050791;28;20032;-56
2021/04/09 03:46:09;;;;;;;15.57;12.18;;;3.90;99.90;;;;;;5050665;28;20021;-56
2021/04/09 03:48:35;;;;;;;15.20;11.68;;;3.90;99.90;;;;;;5050720;28;20044;-54
2021/04/09 03:51:02;;;;;;;16.90;12.57;;;3.90;99.90;;;;;;5049326;28;20025;-56
2021/04/09 03:53:27;;;;;;;17.75;12.02;;;3.90;99.90;;;;;;5050143;28;20548;-56
2021/04/09 03:55:53;;;;;;;15.07;11.80;;;3.90;99.90;;;;;;5050427;28;20025;-57
2021/04/09 03:58:18;;;;;;;19.83;11.95;;;3.90;99.90;;;;;;5049981;28;20040;-57
2021/04/09 04:00:44;;;;;;;17.77;11.95;;;3.90;99.90;;;;;;5049921;28;20100;-56
2021/04/09 04:03:09;;;;;;;16.27;12.00;;;3.90;99.90;;;;;;5049499;28;20066;-57
2021/04/09 04:05:35;;;;;;;13.65;11.55;;;3.90;99.90;;;;;;5050562;28;20060;-56
2021/04/09 04:08:00;;;;;;;16.35;11.85;;;3.80;99.90;;;;;;5049946;28;20452;-55
2021/04/09 04:10:26;;;;;;;19.30;11.80;;;3.90;99.90;;;;;;5045685;28;20561;-56
2021/04/09 04:12:52;;;;;;;14.23;11.38;;;3.90;99.90;;;;;;5057129;28;20521;-56
2021/04/09 04:15:18;;;;;;;15.18;10.68;;;3.90;99.90;;;;;;5066267;28;20107;-56
2021/04/09 04:17:43;;;;;;;18.55;12.02;;;3.90;99.90;;;;;;5069303;28;20104;-53
2021/04/09 04:20:09;;;;;;;17.60;11.88;;;3.90;99.90;;;;;;5067652;28;20028;-56
2021/04/09 04:22:35;;;;;;;15.60;11.50;;;3.90;99.90;;;;;;5067169;28;20009;-57
2021/04/09 04:25:01;;;;;;;16.20;11.68;;;3.90;99.90;;;;;;5067479;28;20024;-55
2021/04/09 04:27:26;;;;;;;15.50;12.00;;;3.90;99.90;;;;;;5066047;28;20043;-56
2021/04/09 04:29:52;;;;;;;15.50;11.73;;;3.90;99.90;;;;;;5067377;28;20104;-54
2021/04/09 04:32:17;;;;;;;15.20;12.10;;;3.90;99.90;;;;;;5067381;28;20074;-57
2021/04/09 04:34:43;;;;;;;14.38;10.55;;;3.90;99.90;;;;;;5064851;28;20051;-55
2021/04/09 04:37:08;;;;;;;15.90;11.02;;;3.80;99.90;;;;;;5063797;28;20031;-56
2021/04/09 04:39:34;;;;;;;19.02;11.85;;;3.90;99.90;;;;;;5056623;28;20056;-56
2021/04/09 04:42:00;;;;;;;16.30;11.05;;;3.90;99.90;;;;;;5056419;28;20123;-57
2021/04/09 04:44:26;;;;;;;14.35;10.70;;;3.90;99.90;;;;;;5055221;28;20041;-57
2021/04/09 04:46:51;;;;;;;16.35;11.75;;;3.90;99.90;;;;;;5051718;28;20502;-58
2021/04/09 04:49:17;;;;;;;17.00;10.93;;;3.90;99.90;;;;;;5050661;28;20543;-56
2021/04/09 04:51:42;;;;;;;15.25;11.48;;;3.90;99.90;;;;;;5062688;28;20021;-52
2021/04/09 04:54:08;;;;;;;18.25;11.57;;;3.90;99.90;;;;;;5057122;28;20051;-56
2021/04/09 04:56:34;;;;;;;17.77;11.55;;;3.90;99.90;;;;;;5061840;28;20096;-57
2021/04/09 04:58:59;;;;;;;12.50;11.23;;;3.90;99.90;;;;;;5067080;28;20103;-58
2021/04/09 05:01:25;;;;;;;16.00;11.20;;;3.90;99.90;;;;;;5068476;28;20031;-56
2021/04/09 05:03:51;;;;;;;17.25;11.88;;;3.90;99.90;;;;;;5068420;28;20414;-56
2021/04/09 05:06:16;;;;;;;14.52;10.57;;;3.90;99.90;;;;;;5066740;28;20021;-57
2021/04/09 05:08:42;;;;;;;15.70;10.70;;;4.00;99.90;;;;;;5046482;28;20020;-54
2021/04/09 05:11:08;;;;;;;19.00;11.32;;;4.00;99.90;;;;;;5066399;28;20121;-55
2021/04/09 05:13:34;;;;;;;14.93;10.57;;;4.00;99.90;;;;;;5059862;28;20029;-55
2021/04/09 05:15:59;;;;;;;19.40;11.18;;;4.10;99.90;;;;;;5068679;28;20421;-56
2021/04/09 05:18:25;;;;;;;17.98;11.85;;;4.10;99.90;;;;;;5068130;28;20020;-55
2021/04/09 05:20:50;;;;;;;12.15;9.68;;;4.10;99.90;;;;;;5065596;28;20096;-56
2021/04/09 05:23:16;;;;;;;15.32;11.52;;;4.00;99.90;;;;;;5066611;28;20016;-55
2021/04/09 05:25:42;;;;;;;18.70;12.00;;;4.00;99.90;;;;;;5046735;28;20025;-53
2021/04/09 05:28:07;;;;;;;15.23;11.32;;;4.10;99.90;;;;;;5067070;28;20550;-54
2021/04/09 05:30:33;;;;;;;14.73;11.07;;;4.10;99.90;;;;;;5065841;28;20063;-58
2021/04/09 05:32:58;;;;;;;15.73;11.82;;;4.10;99.90;;;;;;5067824;28;20059;-55
2021/04/09 05:35:25;;;;;;;18.88;12.15;;;4.10;99.90;;;;;;5045172;28;20513;-55
2021/04/09 05:37:51;;;;;;;14.98;11.00;;;4.20;99.90;;;;;;5064158;28;20021;-56
2021/04/09 05:40:17;;;;;;;17.73;11.40;;;4.10;99.90;;;;;;5065055;28;20029;-56
2021/04/09 05:42:43;;;;;;;18.77;11.02;;;4.20;99.90;;;;;;5064424;28;20021;-56
2021/04/09 05:45:09;;;;;;;16.90;11.65;;;4.20;99.90;;;;;;5067249;28;20103;-54
2021/04/09 05:47:35;;;;;;;16.33;10.57;;;4.20;99.90;;;;;;5066268;28;20027;-54
2021/04/09 05:50:00;;;;;;;15.85;11.05;;;4.20;99.90;;;;;;5067132;28;20020;-53
2021/04/09 05:52:26;;;;;;;14.40;10.80;;;4.20;99.90;;;;;;5067497;28;20059;-57
2021/04/09 05:54:51;;;;;;;17.23;11.18;;;4.20;99.90;;;;;;5064390;28;20297;-58
2021/04/09 05:57:17;;;;;;;16.08;11.50;;;4.30;99.90;;;;;;5064597;28;20058;-58
2021/04/09 05:59:43;;;;;;;12.48;10.70;;;4.30;99.90;;;;;;5066461;28;20074;-56
2021/04/09 06:02:08;;;;;;;14.98;11.48;;;4.30;99.90;;;;;;5067294;28;20078;-57
2021/04/09 06:04:34;;;;;;;15.02;11.48;;;4.30;99.90;;;;;;5064770;28;20005;-57
2021/04/09 06:07:00;;;;;;;13.10;10.23;;;4.30;99.90;;;;;;5063534;28;20021;-55
2021/04/09 06:09:25;;;;;;;16.10;11.95;;;4.40;99.90;;;;;;5059469;28;20032;-55
2021/04/09 06:11:51;;;;;;;13.38;10.27;;;4.40;99.90;;;;;;5046660;28;20029;-56
2021/04/09 06:14:18;;;;;;;17.15;10.93;;;4.40;99.90;;;;;;5046923;28;20028;-56
2021/04/09 06:16:43;;;;;;;17.70;11.38;;;4.40;99.90;;;;;;5048257;28;20037;-57
2021/04/09 06:19:09;;;;;;;13.80;10.13;;;4.50;99.90;;;;;;5047614;28;20438;-56
2021/04/09 06:21:35;;;;;;;15.35;10.93;;;4.50;99.90;;;;;;5047740;28;20017;-57
2021/04/09 06:24:02;;;;;;;14.80;10.63;;;4.50;99.90;;;;;;5047944;28;20433;-57
2021/04/09 06:26:28;;;;;;;16.55;10.77;;;4.50;99.90;;;;;;5048274;28;20406;-56
2021/04/09 06:28:55;;;;;;;16.00;10.75;;;4.50;99.90;;;;;;5048051;28;20025;-56
2021/04/09 06:31:21;;;;;;;15.27;10.95;;;4.60;99.90;;;;;;5047324;28;20096;-56
2021/04/09 06:33:46;;;;;;;12.75;10.18;;;4.60;99.90;;;;;;5048834;28;20021;-57
2021/04/09 06:36:12;;;;;;;16.75;11.15;;;4.70;99.90;;;;;;5044597;28;20032;-57
2021/04/09 06:38:38;;;;;;;14.38;10.65;;;4.70;99.90;;;;;;5047910;28;20117;-56
2021/04/09 06:41:03;;;;;;;16.95;11.50;;;4.80;99.90;;;;;;5047109;28;20041;-55
2021/04/09 06:43:30;;;;;;;15.45;11.35;;;4.80;99.90;;;;;;5049002;28;20035;-57
2021/04/09 06:45:55;;;;;;;17.90;11.35;;;4.90;99.90;;;;;;5051686;28;20029;-57
2021/04/09 06:48:21;;;;;;;13.43;11.25;;;4.90;99.90;;;;;;5052226;28;20573;-56
2021/04/09 06:50:46;;;;;;;13.57;10.15;;;5.00;99.90;;;;;;5050265;28;20021;-57
2021/04/09 06:53:13;;;;;;;15.95;11.57;;;5.00;99.90;;;;;;5051947;28;20029;-56
2021/04/09 06:55:48;;;;;;;13.82;10.88;;;5.10;99.90;;;;;;5051504;28;20033;-55
2021/04/09 06:58:17;;;;;;;16.05;11.73;;;5.20;99.90;;;;;;5033899;28;20025;-57
2021/04/09 07:00:45;;;;;;;17.15;11.02;;;5.20;99.90;;;;;;5051281;28;20040;-57
2021/04/09 07:03:10;;;;;;;15.18;11.27;;;5.30;99.90;;;;;;5050427;28;20021;-57
2021/04/09 07:05:39;;;;;;;15.13;11.40;;;5.30;99.90;;;;;;5051463;28;20433;-57
2021/04/09 07:08:05;;;;;;;13.57;10.65;;;5.40;99.90;;;;;;5068928;28;20086;-57
2021/04/09 07:10:31;;;;;;;17.00;10.75;;;5.40;99.90;;;;;;5064343;28;20106;-57
2021/04/09 07:13:08;;;;;;;15.23;11.52;;;5.50;99.90;;;;;;5068217;28;20137;-57
2021/04/09 07:15:38;;;;;;;19.15;11.50;;;5.50;99.90;;;;;;5066428;28;20021;-54
2021/04/09 07:18:06;;;;;;;15.93;11.18;;;5.60;99.90;;;;;;5064480;28;20024;-57
2021/04/09 07:20:32;;;;;;;17.23;11.25;;;5.60;99.90;;;;;;5052904;28;20024;-56
2021/04/09 07:23:00;;;;;;;15.43;10.50;;;5.60;99.90;;;;;;5051250;28;20009;-55
2021/04/09 07:25:31;;;;;;;16.15;11.48;;;5.70;99.90;;;;;;5050620;28;20028;-55
2021/04/09 07:28:15;;;;;;;14.35;11.13;;;5.70;99.90;;;;;;5051545;28;20017;-56
2021/04/09 07:30:50;;;;;;;16.00;10.77;;;5.80;99.90;;;;;;5050256;28;20021;-57
2021/04/09 07:33:20;;;;;;;12.88;11.38;;;5.90;99.90;;;;;;5050796;28;20021;-56
2021/04/09 07:35:55;;;;;;;17.13;11.68;;;5.90;99.90;;;;;;5047873;28;20017;-57
2021/04/09 07:38:27;;;;;;;13.32;10.70;;;5.90;99.90;;;;;;5051211;28;20025;-56
2021/04/09 07:41:11;;;;;;;14.55;10.95;;;6.00;99.90;;;;;;5049764;28;20037;-58
2021/04/09 07:43:39;;;;;;;13.48;10.70;;;6.10;99.90;;;;;;5047587;28;20028;-56
2021/04/09 07:46:07;;;;;;;16.70;10.32;;;6.20;99.90;;;;;;5050250;28;20066;-56
2021/04/09 07:48:37;;;;;;;14.23;10.20;;;6.20;99.90;;;;;;5050781;28;20043;-57
2021/04/09 07:51:05;;;;;;;17.67;12.02;;;6.30;99.90;;;;;;5049037;28;20772;-56
2021/04/09 07:53:31;;;;;;;14.65;11.23;;;6.30;99.90;;;;;;5050749;28;20541;-57
2021/04/09 07:56:16;;;;;;;13.60;11.02;;;6.50;99.90;;;;;;5050506;28;20029;-55
2021/04/09 07:58:43;;;;;;;15.27;11.32;;;6.70;99.90;;;;;;5050431;28;20031;-58
2021/04/09 08:01:19;;;;;;;13.38;10.40;;;6.90;99.90;;;;;;5050272;28;20025;-57
2021/04/09 08:03:45;;;;;;;16.90;11.20;;;7.10;99.90;;;;;;5050422;28;20024;-59
2021/04/09 08:06:15;;;;;;;14.63;10.88;;;7.30;99.90;;;;;;5050312;28;20380;-57
2021/04/09 08:08:47;;;;;;;16.02;10.77;;;7.30;99.90;;;;;;5049807;28;20017;-58
2021/04/09 08:11:34;;;;;;;17.15;10.57;;;7.30;99.90;;;;;;5031198;28;20398;-58
2021/04/09 08:14:09;;;;;;;12.77;11.05;;;7.20;99.90;;;;;;5044933;28;20438;-58
2021/04/09 08:16:51;;;;;;;14.57;11.88;;;7.20;99.90;;;;;;5050488;28;20067;-58
2021/04/09 08:19:23;;;;;;;16.10;11.25;;;7.30;99.90;;;;;;5042142;28;20388;-56
2021/04/09 08:21:55;;;;;;;17.23;10.65;;;7.50;99.90;;;;;;5049914;28;20386;-55
2021/04/09 08:24:23;;;;;;;15.68;10.77;;;7.70;99.90;;;;;;5050048;28;20032;-58
2021/04/09 08:26:50;;;;;;;17.02;11.13;;;7.70;99.90;;;;;;5050333;28;20025;-57
2021/04/09 08:29:17;;;;;;;15.15;10.93;;;7.90;99.90;;;;;;5050116;28;20525;-56
2021/04/09 08:31:42;;;;;;;16.67;9.93;;;7.90;99.90;;;;;;5049904;28;20025;-58
2021/04/09 08:34:11;;;;;;;15.77;10.82;;;8.00;99.90;;;;;;5049779;28;20672;-57
2021/04/09 08:36:42;;;;;;;14.63;10.93;;;8.10;99.90;;;;;;5049745;28;20017;-57
2021/04/09 08:39:11;;;;;;;13.82;10.77;;;8.20;99.90;;;;;;5049931;28;20091;-58
2021/04/09 08:41:38;;;;;;;15.00;10.77;;;8.30;99.90;;;;;;5049782;28;20029;-57
2021/04/09 08:44:07;;;;;;;15.93;10.75;;;8.40;99.90;;;;;;5049712;28;20028;-58
2021/04/09 08:46:33;;;;;;;14.52;9.73;;;8.60;99.90;;;;;;5049669;28;20029;-57
2021/04/09 08:49:00;;;;;;;18.48;11.20;;;8.70;99.90;;;;;;5048356;28;20035;-56
2021/04/09 08:51:27;;;;;;;14.35;10.65;;;8.80;99.90;;;;;;5040102;28;20032;-57
2021/04/09 08:53:53;;;;;;;13.27;9.20;;;9.20;99.90;;;;;;5031540;28;20061;-56
2021/04/09 08:56:36;;;;;;;12.15;9.75;;;9.40;99.90;;;;;;5049364;28;20088;-58
2021/04/09 08:59:02;;;;;;;14.13;10.10;;;9.50;99.90;;;;;;5048685;28;20052;-57
2021/04/09 09:01:28;;;;;;;15.02;10.38;;;9.40;99.90;;;;;;5048875;28;20021;-58
2021/04/09 09:03:54;;;;;;;14.57;10.43;;;9.40;99.90;;;;;;5049280;28;20548;-57
2021/04/09 09:06:42;;;;;;;12.15;9.65;;;9.50;99.90;;;;;;5048584;28;20057;-58
2021/04/09 09:09:08;;;;;;;11.38;9.40;;;9.50;99.90;;;;;;5048389;28;20096;-59
2021/04/09 09:11:53;;;;;;;16.05;9.52;;;9.50;99.90;;;;;;5049464;28;20602;-57
2021/04/09 09:14:34;;;;;;;13.55;9.48;;;9.60;99.90;;;;;;5045821;28;20086;-57
2021/04/09 09:17:18;;;;;;;13.93;10.18;;;9.80;99.90;;;;;;5048535;28;20470;-57
2021/04/09 09:20:07;;;;;;;12.73;10.02;;;9.80;99.90;;;;;;5048586;28;20017;-55
2021/04/09 09:22:50;;;;;;;12.48;9.52;;;9.80;99.90;;;;;;5042895;28;20498;-57
2021/04/09 09:25:37;;;;;;;12.40;9.43;;;9.70;99.90;;;;;;5048564;28;20090;-58
2021/04/09 09:28:08;;;;;;;16.52;10.25;;;9.70;99.90;;;;;;5064372;28;20043;-57
2021/04/09 09:30:35;;;;;;;14.40;9.70;;;9.70;99.90;;;;;;5052058;28;20057;-57
2021/04/09 09:33:23;;;;;;;13.05;9.75;;;9.80;99.90;;;;;;5048430;28;20016;-57
2021/04/09 09:36:04;;;;;;;13.75;9.80;;;9.90;99.90;;;;;;5048139;28;20531;-57
2021/04/09 09:38:48;;;;;;;11.75;7.93;;;10.10;99.90;;;;;;5048583;28;20025;-57
2021/04/09 09:41:37;;;;;;;16.08;10.05;;;10.40;99.90;;;;;;5036720;28;20029;-57
2021/04/09 09:44:24;;;;;;;15.40;8.63;;;10.50;99.90;;;;;;5048563;28;20127;-59
2021/04/09 09:46:54;;;;;;;13.85;8.85;;;10.50;99.90;;;;;;5048714;28;20103;-58
2021/04/09 09:49:24;;;;;;;10.85;8.55;;;10.50;99.90;;;;;;5048118;28;20056;-58
2021/04/09 09:51:50;;;;;;;10.73;8.52;;;10.40;99.90;;;;;;5048559;28;20032;-58
2021/04/09 09:54:24;;;;;;;13.93;8.48;;;10.40;99.90;;;;;;5048266;28;20021;-58
2021/04/09 09:56:50;;;;;;;10.43;7.85;;;10.30;99.90;;;;;;5048208;28;20021;-59
2021/04/09 09:59:19;;;;;;;11.13;8.77;;;10.40;99.90;;;;;;5029675;28;20025;-59
2021/04/09 10:01:50;;;;;;;13.55;8.70;;;10.20;99.90;;;;;;5048360;28;20092;-57
2021/04/09 10:04:16;;;;;;;12.23;8.20;;;10.10;99.90;;;;;;5048730;28;20017;-56
2021/04/09 10:06:49;;;;;;;13.68;8.60;;;10.10;99.90;;;;;;5048337;28;20466;-57
2021/04/09 10:09:22;;;;;;;11.77;8.80;;;10.10;99.90;;;;;;5047611;28;20027;-57
2021/04/09 10:11:48;;;;;;;12.88;8.95;;;10.20;99.90;;;;;;5047371;28;20554;-59
2021/04/09 10:14:14;;;;;;;11.60;7.85;;;10.40;99.90;;;;;;5044327;28;20041;-59
2021/04/09 10:16:39;;;;;;;12.55;8.00;;;10.40;99.90;;;;;;5044352;28;20566;-58
2021/04/09 10:19:07;;;;;;;11.30;8.20;;;10.40;99.90;;;;;;5046877;28;20021;-57
2021/04/09 10:21:36;;;;;;;8.38;7.30;;;10.30;99.90;;;;;;5048316;28;20029;-59
2021/04/09 10:24:12;;;;;;;10.30;7.82;;;10.20;99.90;;;;;;5048200;28;20096;-59
2021/04/09 10:26:40;;;;;;;13.82;8.02;;;10.20;99.90;;;;;;5041004;28;20017;-58
2021/04/09 10:29:28;;;;;;;7.22;6.50;;;10.20;99.90;;;;;;5056530;28;20048;-59
2021/04/09 10:31:55;;;;;;;9.20;7.70;;;10.20;99.90;;;;;;5066168;28;20393;-58
2021/04/09 10:34:23;;;;;;;9.48;7.85;;;10.20;99.90;;;;;;5061027;28;20075;-58
2021/04/09 10:36:50;;;;;;;10.02;7.38;;;10.10;99.90;;;;;;5043404;28;20610;-58
2021/04/09 10:39:19;;;;;;;13.50;8.25;;;10.20;99.90;;;;;;5066143;28;20032;-57
2021/04/09 10:41:53;;;;;;;8.80;7.32;;;10.30;99.90;;;;;;5064572;28;20028;-57
2021/04/09 10:44:24;;;;;;;13.43;7.93;;;10.30;99.90;;;;;;5063250;28;20514;-57
2021/04/09 10:46:52;;;;;;;8.90;7.45;;;10.30;99.90;;;;;;5065992;28;20013;-57
2021/04/09 10:49:21;;;;;;;9.00;8.05;;;10.20;99.90;;;;;;5064806;28;20506;-57
2021/04/09 10:51:50;;;;;;;9.27;7.85;;;10.20;99.90;;;;;;5048874;28;20131;-58
2021/04/09 10:54:29;;;;;;;11.48;8.00;;;10.10;99.90;;;;;;5066652;28;20099;-57
2021/04/09 10:57:19;;;;;;;10.45;8.13;;;10.00;99.90;;;;;;5064086;28;20027;-57
2021/04/09 10:59:49;;;;;;;10.35;7.38;;;10.00;99.90;;;;;;5064565;28;20021;-58
2021/04/09 11:02:22;;;;;;;10.15;7.68;;;10.00;99.90;;;;;;5061547;28;20021;-59
2021/04/09 11:04:52;;;;;;;11.60;7.65;;;10.00;99.90;;;;;;5066799;28;20029;-58
2021/04/09 11:07:18;;;;;;;11.80;7.57;;;10.00;99.90;;;;;;5063343;28;20139;-56
2021/04/09 11:09:49;;;;;;;11.90;8.07;;;10.00;99.90;;;;;;5063817;28;20476;-58
2021/04/09 11:12:28;;;;;;;9.05;7.78;;;10.10;99.90;;;;;;5063396;28;20159;-58
2021/04/09 11:15:05;;;;;;;9.02;7.72;;;10.00;99.90;;;;;;5064793;28;20036;-59
2021/04/09 11:17:31;;;;;;;8.98;7.22;;;10.00;99.90;;;;;;5059151;28;20020;-59
2021/04/09 11:19:58;;;;;;;12.73;8.70;;;10.00;99.90;;;;;;5059118;28;20129;-59
2021/04/09 11:22:28;;;;;;;12.80;8.18;;;10.00;99.90;;;;;;5064931;28;20024;-58
2021/04/09 11:25:03;;;;;;;11.35;7.80;;;10.00;99.90;;;;;;5061820;28;20027;-59
2021/04/09 11:27:34;;;;;;;11.15;7.20;;;10.00;99.90;;;;;;5062026;28;20411;-57
2021/04/09 11:30:15;;;;;;;10.43;7.60;;;10.00;99.90;;;;;;5060086;28;20029;-56
2021/04/09 11:32:46;;;;;;;9.50;7.25;;;10.00;99.90;;;;;;5064927;28;20032;-58
2021/04/09 11:35:12;;;;;;;11.50;7.78;;;10.00;99.90;;;;;;5062539;28;20025;-56
2021/04/09 11:37:47;;;;;;;13.65;7.75;;;10.00;99.90;;;;;;5063136;28;20055;-57
2021/04/09 11:40:15;;;;;;;9.68;6.40;;;9.90;99.90;;;;;;5066828;28;20032;-57
2021/04/09 11:42:42;;;;;;;10.25;6.75;;;9.90;99.90;;;;;;5067069;28;20013;-59
2021/04/09 11:45:14;;;;;;;8.57;6.25;;;10.00;99.90;;;;;;5063431;28;20325;-58
2021/04/09 11:47:41;;;;;;;12.68;6.72;;;10.10;99.90;;;;;;5066246;28;20083;-57
2021/04/09 11:50:18;;;;;;;9.77;6.70;;;10.20;99.90;;;;;;5067840;28;20107;-58
2021/04/09 11:53:01;;;;;;;10.00;7.13;;;10.40;99.90;;;;;;5065994;28;20043;-57
2021/04/09 11:55:38;;;;;;;8.98;6.88;;;10.50;99.90;;;;;;5068118;28;20055;-57
2021/04/09 11:58:15;;;;;;;9.80;6.55;;;10.50;99.90;;;;;;5068029;28;20557;-57
2021/04/09 12:00:51;;;;;;;10.45;7.20;;;10.50;99.90;;;;;;5048960;28;20561;-58
2021/04/09 12:03:17;;;;;;;9.82;6.22;;;10.60;99.90;;;;;;5065572;28;20052;-58
2021/04/09 12:05:42;;;;;;;13.27;7.20;;;10.80;99.90;;;;;;5064887;28;20060;-59
2021/04/09 12:08:08;;;;;;;11.50;7.68;;;10.90;99.90;;;;;;5067951;28;20418;-57
2021/04/09 12:10:35;;;;;;;8.02;6.75;;;11.10;99.90;;;;;;5048933;28;20021;-57
2021/04/09 12:13:02;;;;;;;12.27;7.93;;;10.90;99.90;;;;;;5049976;28;20121;-57
2021/04/09 12:15:28;;;;;;;10.70;8.02;;;10.90;99.90;;;;;;5049845;28;20341;-57
2021/04/09 12:17:54;;;;;;;11.30;8.82;;;10.70;99.90;;;;;;5049616;28;20442;-58
2021/04/09 12:20:22;;;;;;;11.95;7.93;;;10.60;99.90;;;;;;5048397;28;20116;-57
2021/04/09 12:22:47;;;;;;;11.82;8.32;;;10.60;99.90;;;;;;5044410;28;20495;-58
2021/04/09 12:25:14;;;;;;;14.77;9.75;;;10.50;99.90;;;;;;5049446;28;20056;-58
2021/04/09 12:27:41;;;;;;;10.90;9.10;;;10.50;99.90;;;;;;5049139;28;20632;-55
2021/04/09 12:30:09;;;;;;;20.63;15.00;;;10.50;99.90;;;;;;5049574;28;20151;-57
2021/04/09 12:32:35;;;;;;;11.75;8.85;;;10.40;99.90;;;;;;5033335;28;20500;-57
2021/04/09 12:35:02;;;;;;;12.63;8.88;;;10.30;99.90;;;;;;5049424;28;20115;-59
2021/04/09 12:37:27;;;;;;;21.88;13.43;;;10.30;99.90;;;;;;5051660;28;20085;-55
2021/04/09 12:39:53;;;;;;;11.73;9.23;;;10.30;99.90;;;;;;5055882;28;20498;-57
2021/04/09 12:42:19;;;;;;;13.68;10.60;;;10.20;99.90;;;;;;5048752;28;20552;-57
2021/04/09 12:44:45;;;;;;;19.92;13.43;;;10.20;99.90;;;;;;5049332;28;20103;-56
2021/04/09 12:47:11;;;;;;;22.15;15.80;;;10.20;99.90;;;;;;5049838;28;20099;-58